sensor_id;sensor_type;location;lat;lon;timestamp;temperature;humidity
582;DHT22;277;50.074;8.436;2023-02-19T00:01:44;10.10;99.90
582;DHT22;277;50.074;8.436;2023-02-19T00:04:15;10.10;99.90
582;DHT22;277;50.074;8.436;2023-02-19T00:06:43;10.10;99.90
582;DHT22;277;50.074;8.436;2023-02-19T00:09:12;10.00;99.90
582;DHT22;277;50.074;8.436;2023-02-19T00:11:41;10.10;99.90
582;DHT22;277;50.074;8.436;2023-02-19T00:14:10;10.10;99.90
582;DHT22;277;50.074;8.436;2023-02-19T00:16:42;10.10;99.90
582;DHT22;277;50.074;8.436;2023-02-19T00:19:12;10.10;99.90
582;DHT22;277;50.074;8.436;2023-02-19T00:21:40;10.10;99.90
582;DHT22;277;50.074;8.436;2023-02-19T00:24:10;10.10;99.90
582;DHT22;277;50.074;8.436;2023-02-19T00:26:39;10.10;99.90
582;DHT22;277;50.074;8.436;2023-02-19T00:29:10;10.20;99.90
582;DHT22;277;50.074;8.436;2023-02-19T00:31:38;10.20;99.90
582;DHT22;277;50.074;8.436;2023-02-19T00:34:08;10.20;99.90
582;DHT22;277;50.074;8.436;2023-02-19T00:36:38;10.20;99.90
582;DHT22;277;50.074;8.436;2023-02-19T00:39:07;10.20;99.90
582;DHT22;277;50.074;8.436;2023-02-19T00:41:37;10.10;99.90
582;DHT22;277;50.074;8.436;2023-02-19T00:44:06;10.10;99.90
582;DHT22;277;50.074;8.436;2023-02-19T00:46:36;10.10;99.90
582;DHT22;277;50.074;8.436;2023-02-19T00:49:05;10.10;99.90
582;DHT22;277;50.074;8.436;2023-02-19T00:51:36;10.10;99.90
582;DHT22;277;50.074;8.436;2023-02-19T00:54:05;10.10;99.90
582;DHT22;277;50.074;8.436;2023-02-19T00:56:33;10.10;99.90
582;DHT22;277;50.074;8.436;2023-02-19T00:59:01;10.10;99.90
582;DHT22;277;50.074;8.436;2023-02-19T01:01:30;10.10;99.90
582;DHT22;277;50.074;8.436;2023-02-19T01:03:57;10.10;99.90
582;DHT22;277;50.074;8.436;2023-02-19T01:06:25;10.10;99.90
582;DHT22;277;50.074;8.436;2023-02-19T01:08:57;10.10;99.90
582;DHT22;277;50.074;8.436;2023-02-19T01:11:25;10.10;99.90
582;DHT22;277;50.074;8.436;2023-02-19T01:13:56;10.10;99.90
582;DHT22;277;50.074;8.436;2023-02-19T01:16:25;10.10;99.90
582;DHT22;277;50.074;8.436;2023-02-19T01:18:53;10.10;99.90
582;DHT22;277;50.074;8.436;2023-02-19T01:21:25;10.20;99.90
582;DHT22;277;50.074;8.436;2023-02-19T01:23:53;10.20;99.90
582;DHT22;277;50.074;8.436;2023-02-19T01:26:25;10.10;99.90
582;DHT22;277;50.074;8.436;2023-02-19T01:28:53;10.10;99.90
582;DHT22;277;50.074;8.436;2023-02-19T01:31:23;10.00;99.90
582;DHT22;277;50.074;8.436;2023-02-19T01:33:52;10.00;99.90
582;DHT22;277;50.074;8.436;2023-02-19T01:36:22;10.00;99.90
582;DHT22;277;50.074;8.436;2023-02-19T01:38:50;10.20;99.90
582;DHT22;277;50.074;8.436;2023-02-19T01:41:20;10.20;99.90
582;DHT22;277;50.074;8.436;2023-02-19T01:43:59;10.20;99.90
582;DHT22;277;50.074;8.436;2023-02-19T01:46:28;10.20;99.90
582;DHT22;277;50.074;8.436;2023-02-19T01:48:59;10.20;99.90
582;DHT22;277;50.074;8.436;2023-02-19T01:51:30;10.30;99.90
582;DHT22;277;50.074;8.436;2023-02-19T01:54:01;10.20;99.90
582;DHT22;277;50.074;8.436;2023-02-19T01:56:30;10.20;99.90
582;DHT22;277;50.074;8.436;2023-02-19T01:59:01;10.10;99.90
582;DHT22;277;50.074;8.436;2023-02-19T02:01:29;10.10;99.90
582;DHT22;277;50.074;8.436;2023-02-19T02:03:57;10.10;99.90
582;DHT22;277;50.074;8.436;2023-02-19T02:06:29;10.00;99.90
582;DHT22;277;50.074;8.436;2023-02-19T02:08:58;10.00;99.90
582;DHT22;277;50.074;8.436;2023-02-19T02:11:47;10.00;99.90
582;DHT22;277;50.074;8.436;2023-02-19T02:14:20;10.00;99.90
582;DHT22;277;50.074;8.436;2023-02-19T02:16:54;10.00;99.90
582;DHT22;277;50.074;8.436;2023-02-19T02:19:30;10.00;99.90
582;DHT22;277;50.074;8.436;2023-02-19T02:22:10;10.00;99.90
582;DHT22;277;50.074;8.436;2023-02-19T02:25:10;10.00;99.90
582;DHT22;277;50.074;8.436;2023-02-19T02:28:02;10.00;99.90
582;DHT22;277;50.074;8.436;2023-02-19T02:30:43;10.00;99.90
582;DHT22;277;50.074;8.436;2023-02-19T02:33:25;10.00;99.90
582;DHT22;277;50.074;8.436;2023-02-19T02:35:58;10.00;99.90
582;DHT22;277;50.074;8.436;2023-02-19T02:38:29;10.00;99.90
582;DHT22;277;50.074;8.436;2023-02-19T02:40:59;10.00;99.90
582;DHT22;277;50.074;8.436;2023-02-19T02:43:28;10.00;99.90
582;DHT22;277;50.074;8.436;2023-02-19T02:45:57;10.00;99.90
582;DHT22;277;50.074;8.436;2023-02-19T02:48:30;10.00;99.90
582;DHT22;277;50.074;8.436;2023-02-19T02:51:02;9.90;99.90
582;DHT22;277;50.074;8.436;2023-02-19T02:53:34;9.90;99.90
582;DHT22;277;50.074;8.436;2023-02-19T02:56:23;9.90;99.90
582;DHT22;277;50.074;8.436;2023-02-19T02:58:52;9.90;99.90
582;DHT22;277;50.074;8.436;2023-02-19T03:01:27;9.90;99.90
582;DHT22;277;50.074;8.436;2023-02-19T03:04:18;9.90;99.90
582;DHT22;277;50.074;8.436;2023-02-19T03:06:48;10.00;99.90
582;DHT22;277;50.074;8.436;2023-02-19T03:09:19;10.00;99.90
582;DHT22;277;50.074;8.436;2023-02-19T03:11:49;10.00;99.90
582;DHT22;277;50.074;8.436;2023-02-19T03:14:39;10.00;99.90
582;DHT22;277;50.074;8.436;2023-02-19T03:17:30;10.10;99.90
582;DHT22;277;50.074;8.436;2023-02-19T03:20:19;10.10;99.90
582;DHT22;277;50.074;8.436;2023-02-19T03:22:49;10.10;99.90
582;DHT22;277;50.074;8.436;2023-02-19T03:25:20;10.20;99.90
582;DHT22;277;50.074;8.436;2023-02-19T03:28:09;10.10;99.90
582;DHT22;277;50.074;8.436;2023-02-19T03:30:40;10.10;99.90
582;DHT22;277;50.074;8.436;2023-02-19T03:33:13;10.00;99.90
582;DHT22;277;50.074;8.436;2023-02-19T03:35:44;10.00;99.90
582;DHT22;277;50.074;8.436;2023-02-19T03:38:16;10.00;99.90
582;DHT22;277;50.074;8.436;2023-02-19T03:40:51;10.00;99.90
582;DHT22;277;50.074;8.436;2023-02-19T03:43:23;10.00;99.90
582;DHT22;277;50.074;8.436;2023-02-19T03:45:57;10.10;99.90
582;DHT22;277;50.074;8.436;2023-02-19T03:48:33;10.10;99.90
582;DHT22;277;50.074;8.436;2023-02-19T03:51:13;10.10;99.90
582;DHT22;277;50.074;8.436;2023-02-19T03:53:51;10.20;99.90
582;DHT22;277;50.074;8.436;2023-02-19T03:56:25;10.20;99.90
582;DHT22;277;50.074;8.436;2023-02-19T03:58:57;10.30;99.90
582;DHT22;277;50.074;8.436;2023-02-19T04:01:30;10.30;99.90
582;DHT22;277;50.074;8.436;2023-02-19T04:04:05;10.20;99.90
582;DHT22;277;50.074;8.436;2023-02-19T04:06:35;10.20;99.90
582;DHT22;277;50.074;8.436;2023-02-19T04:09:07;10.30;99.90
582;DHT22;277;50.074;8.436;2023-02-19T04:11:37;10.30;99.90
582;DHT22;277;50.074;8.436;2023-02-19T04:14:08;10.30;99.90
582;DHT22;277;50.074;8.436;2023-02-19T04:16:40;10.30;99.90
582;DHT22;277;50.074;8.436;2023-02-19T04:19:15;10.30;99.90
582;DHT22;277;50.074;8.436;2023-02-19T04:21:47;10.30;99.90
582;DHT22;277;50.074;8.436;2023-02-19T04:24:21;10.30;99.90
582;DHT22;277;50.074;8.436;2023-02-19T04:26:49;10.30;99.90
582;DHT22;277;50.074;8.436;2023-02-19T04:29:17;10.30;99.90
582;DHT22;277;50.074;8.436;2023-02-19T04:31:45;10.20;99.90
582;DHT22;277;50.074;8.436;2023-02-19T04:34:15;10.20;99.90
582;DHT22;277;50.074;8.436;2023-02-19T04:36:43;10.10;99.90
582;DHT22;277;50.074;8.436;2023-02-19T04:39:11;10.10;99.90
582;DHT22;277;50.074;8.436;2023-02-19T04:41:39;10.10;99.90
582;DHT22;277;50.074;8.436;2023-02-19T04:44:07;10.10;99.90
582;DHT22;277;50.074;8.436;2023-02-19T04:46:35;10.10;99.90
582;DHT22;277;50.074;8.436;2023-02-19T04:49:03;10.10;99.90
582;DHT22;277;50.074;8.436;2023-02-19T04:51:32;10.00;99.90
582;DHT22;277;50.074;8.436;2023-02-19T04:54:00;10.00;99.90
582;DHT22;277;50.074;8.436;2023-02-19T04:56:28;10.00;99.90
582;DHT22;277;50.074;8.436;2023-02-19T04:58:56;10.00;99.90
582;DHT22;277;50.074;8.436;2023-02-19T05:01:24;10.00;99.90
582;DHT22;277;50.074;8.436;2023-02-19T05:03:52;10.00;99.90
582;DHT22;277;50.074;8.436;2023-02-19T05:06:21;10.00;99.90
582;DHT22;277;50.074;8.436;2023-02-19T05:08:50;10.00;99.90
582;DHT22;277;50.074;8.436;2023-02-19T05:11:18;10.00;99.90
582;DHT22;277;50.074;8.436;2023-02-19T05:13:46;10.00;99.90
582;DHT22;277;50.074;8.436;2023-02-19T05:16:15;10.00;99.90
582;DHT22;277;50.074;8.436;2023-02-19T05:18:44;10.00;99.90
582;DHT22;277;50.074;8.436;2023-02-19T05:21:13;10.00;99.90
582;DHT22;277;50.074;8.436;2023-02-19T05:23:42;9.90;99.90
582;DHT22;277;50.074;8.436;2023-02-19T05:26:14;9.90;99.90
582;DHT22;277;50.074;8.436;2023-02-19T05:28:43;10.00;99.90
582;DHT22;277;50.074;8.436;2023-02-19T05:31:12;10.00;99.90
582;DHT22;277;50.074;8.436;2023-02-19T05:33:40;10.00;99.90
582;DHT22;277;50.074;8.436;2023-02-19T05:36:11;10.00;99.90
582;DHT22;277;50.074;8.436;2023-02-19T05:38:40;9.90;99.90
582;DHT22;277;50.074;8.436;2023-02-19T05:41:10;10.00;99.90
582;DHT22;277;50.074;8.436;2023-02-19T05:43:41;10.00;99.90
582;DHT22;277;50.074;8.436;2023-02-19T05:46:11;10.00;99.90
582;DHT22;277;50.074;8.436;2023-02-19T05:48:39;10.00;99.90
582;DHT22;277;50.074;8.436;2023-02-19T05:51:09;9.90;99.90
582;DHT22;277;50.074;8.436;2023-02-19T05:53:37;10.00;99.90
582;DHT22;277;50.074;8.436;2023-02-19T05:56:22;10.00;99.90
582;DHT22;277;50.074;8.436;2023-02-19T05:58:53;10.00;99.90
582;DHT22;277;50.074;8.436;2023-02-19T06:01:23;10.00;99.90
582;DHT22;277;50.074;8.436;2023-02-19T06:03:51;10.10;99.90
582;DHT22;277;50.074;8.436;2023-02-19T06:06:23;10.10;99.90
582;DHT22;277;50.074;8.436;2023-02-19T06:08:52;10.10;99.90
582;DHT22;277;50.074;8.436;2023-02-19T06:11:21;10.10;99.90
582;DHT22;277;50.074;8.436;2023-02-19T06:13:49;10.10;99.90
582;DHT22;277;50.074;8.436;2023-02-19T06:16:18;10.10;99.90
582;DHT22;277;50.074;8.436;2023-02-19T06:18:47;10.10;99.90
582;DHT22;277;50.074;8.436;2023-02-19T06:21:16;10.10;99.90
582;DHT22;277;50.074;8.436;2023-02-19T06:23:45;10.00;99.90
582;DHT22;277;50.074;8.436;2023-02-19T06:26:15;10.10;99.90
582;DHT22;277;50.074;8.436;2023-02-19T06:28:45;10.10;99.90
582;DHT22;277;50.074;8.436;2023-02-19T06:31:14;10.10;99.90
582;DHT22;277;50.074;8.436;2023-02-19T06:33:43;10.10;99.90
582;DHT22;277;50.074;8.436;2023-02-19T06:36:13;10.00;99.90
582;DHT22;277;50.074;8.436;2023-02-19T06:38:41;10.00;99.90
582;DHT22;277;50.074;8.436;2023-02-19T06:41:10;10.00;99.90
582;DHT22;277;50.074;8.436;2023-02-19T06:43:39;10.00;99.90
582;DHT22;277;50.074;8.436;2023-02-19T06:46:08;10.00;99.90
582;DHT22;277;50.074;8.436;2023-02-19T06:48:38;10.10;99.90
582;DHT22;277;50.074;8.436;2023-02-19T06:51:10;10.10;99.90
582;DHT22;277;50.074;8.436;2023-02-19T06:53:38;10.10;99.90
582;DHT22;277;50.074;8.436;2023-02-19T06:56:19;10.10;99.90
582;DHT22;277;50.074;8.436;2023-02-19T06:58:47;10.20;99.90
582;DHT22;277;50.074;8.436;2023-02-19T07:01:15;10.20;99.90
582;DHT22;277;50.074;8.436;2023-02-19T07:03:43;10.10;99.90
582;DHT22;277;50.074;8.436;2023-02-19T07:06:13;10.20;99.90
582;DHT22;277;50.074;8.436;2023-02-19T07:08:41;10.20;99.90
582;DHT22;277;50.074;8.436;2023-02-19T07:11:09;10.20;99.90
582;DHT22;277;50.074;8.436;2023-02-19T07:13:37;10.20;99.90
582;DHT22;277;50.074;8.436;2023-02-19T07:16:07;10.20;99.90
582;DHT22;277;50.074;8.436;2023-02-19T07:18:37;10.20;99.90
582;DHT22;277;50.074;8.436;2023-02-19T07:21:07;10.20;99.90
582;DHT22;277;50.074;8.436;2023-02-19T07:23:40;10.20;99.90
582;DHT22;277;50.074;8.436;2023-02-19T07:26:09;10.20;99.90
582;DHT22;277;50.074;8.436;2023-02-19T07:28:39;10.20;99.90
582;DHT22;277;50.074;8.436;2023-02-19T07:31:07;10.20;99.90
582;DHT22;277;50.074;8.436;2023-02-19T07:33:35;10.20;99.90
582;DHT22;277;50.074;8.436;2023-02-19T07:36:06;10.30;99.90
582;DHT22;277;50.074;8.436;2023-02-19T07:38:34;10.30;99.90
582;DHT22;277;50.074;8.436;2023-02-19T07:41:05;10.30;99.90
582;DHT22;277;50.074;8.436;2023-02-19T07:43:35;10.20;99.90
582;DHT22;277;50.074;8.436;2023-02-19T07:46:03;10.30;99.90
582;DHT22;277;50.074;8.436;2023-02-19T07:48:33;10.30;99.90
582;DHT22;277;50.074;8.436;2023-02-19T07:51:02;10.40;99.90
582;DHT22;277;50.074;8.436;2023-02-19T07:53:31;10.40;99.90
582;DHT22;277;50.074;8.436;2023-02-19T07:55:59;10.40;99.90
582;DHT22;277;50.074;8.436;2023-02-19T07:58:29;10.50;99.90
582;DHT22;277;50.074;8.436;2023-02-19T08:01:06;10.50;99.90
582;DHT22;277;50.074;8.436;2023-02-19T08:03:34;10.40;99.90
582;DHT22;277;50.074;8.436;2023-02-19T08:06:02;10.40;99.90
582;DHT22;277;50.074;8.436;2023-02-19T08:08:30;10.40;99.90
582;DHT22;277;50.074;8.436;2023-02-19T08:10:59;10.40;99.90
582;DHT22;277;50.074;8.436;2023-02-19T08:13:47;10.40;99.90
582;DHT22;277;50.074;8.436;2023-02-19T08:16:16;10.30;99.90
582;DHT22;277;50.074;8.436;2023-02-19T08:18:59;10.30;99.90
582;DHT22;277;50.074;8.436;2023-02-19T08:21:26;10.30;99.90
582;DHT22;277;50.074;8.436;2023-02-19T08:23:55;10.40;99.90
582;DHT22;277;50.074;8.436;2023-02-19T08:26:22;10.40;99.90
582;DHT22;277;50.074;8.436;2023-02-19T08:28:52;10.50;99.90
582;DHT22;277;50.074;8.436;2023-02-19T08:31:19;10.50;99.90
582;DHT22;277;50.074;8.436;2023-02-19T08:33:47;10.60;99.90
582;DHT22;277;50.074;8.436;2023-02-19T08:36:15;10.50;99.90
582;DHT22;277;50.074;8.436;2023-02-19T08:38:43;10.50;99.90
582;DHT22;277;50.074;8.436;2023-02-19T08:41:12;10.50;99.90
582;DHT22;277;50.074;8.436;2023-02-19T08:43:43;10.40;99.90
582;DHT22;277;50.074;8.436;2023-02-19T08:46:12;10.50;99.90
582;DHT22;277;50.074;8.436;2023-02-19T08:48:40;10.50;99.90
582;DHT22;277;50.074;8.436;2023-02-19T08:51:10;10.50;99.90
582;DHT22;277;50.074;8.436;2023-02-19T08:53:39;10.60;99.90
582;DHT22;277;50.074;8.436;2023-02-19T08:56:09;10.60;99.90
582;DHT22;277;50.074;8.436;2023-02-19T08:58:37;10.70;99.90
582;DHT22;277;50.074;8.436;2023-02-19T09:01:07;10.70;99.90
582;DHT22;277;50.074;8.436;2023-02-19T09:03:38;10.70;99.90
582;DHT22;277;50.074;8.436;2023-02-19T09:06:06;10.70;99.90
582;DHT22;277;50.074;8.436;2023-02-19T09:08:35;10.70;99.90
582;DHT22;277;50.074;8.436;2023-02-19T09:11:04;10.80;99.90
582;DHT22;277;50.074;8.436;2023-02-19T09:13:32;10.80;99.90
582;DHT22;277;50.074;8.436;2023-02-19T09:16:01;10.90;99.90
582;DHT22;277;50.074;8.436;2023-02-19T09:18:29;10.90;99.90
582;DHT22;277;50.074;8.436;2023-02-19T09:21:00;11.00;99.90
582;DHT22;277;50.074;8.436;2023-02-19T09:23:33;11.10;99.90
582;DHT22;277;50.074;8.436;2023-02-19T09:26:02;11.10;99.90
582;DHT22;277;50.074;8.436;2023-02-19T09:28:32;11.30;99.90
582;DHT22;277;50.074;8.436;2023-02-19T09:31:03;11.30;99.90
582;DHT22;277;50.074;8.436;2023-02-19T09:33:31;11.40;99.90
582;DHT22;277;50.074;8.436;2023-02-19T09:36:00;11.40;99.90
582;DHT22;277;50.074;8.436;2023-02-19T09:38:29;11.50;99.90
582;DHT22;277;50.074;8.436;2023-02-19T09:40:58;11.50;99.90
582;DHT22;277;50.074;8.436;2023-02-19T09:43:27;11.40;99.90
582;DHT22;277;50.074;8.436;2023-02-19T09:46:00;11.30;99.90
582;DHT22;277;50.074;8.436;2023-02-19T09:48:29;11.30;99.90
582;DHT22;277;50.074;8.436;2023-02-19T09:50:59;11.30;99.90
582;DHT22;277;50.074;8.436;2023-02-19T09:53:35;11.20;99.90
582;DHT22;277;50.074;8.436;2023-02-19T09:56:07;11.20;99.90
582;DHT22;277;50.074;8.436;2023-02-19T09:58:39;11.20;99.90
582;DHT22;277;50.074;8.436;2023-02-19T10:01:10;11.10;99.90
582;DHT22;277;50.074;8.436;2023-02-19T10:03:42;11.10;99.90
582;DHT22;277;50.074;8.436;2023-02-19T10:06:18;10.80;99.90
582;DHT22;277;50.074;8.436;2023-02-19T10:08:49;10.80;99.90
582;DHT22;277;50.074;8.436;2023-02-19T10:11:18;10.90;99.90
582;DHT22;277;50.074;8.436;2023-02-19T10:13:48;10.80;99.90
582;DHT22;277;50.074;8.436;2023-02-19T10:16:18;10.90;99.90
582;DHT22;277;50.074;8.436;2023-02-19T10:18:47;10.90;99.90
582;DHT22;277;50.074;8.436;2023-02-19T10:21:19;11.00;99.90
582;DHT22;277;50.074;8.436;2023-02-19T10:23:50;11.00;99.90
582;DHT22;277;50.074;8.436;2023-02-19T10:26:21;11.10;99.90
582;DHT22;277;50.074;8.436;2023-02-19T10:28:49;11.00;99.90
582;DHT22;277;50.074;8.436;2023-02-19T10:31:19;11.00;99.90
582;DHT22;277;50.074;8.436;2023-02-19T10:33:49;11.00;99.90
582;DHT22;277;50.074;8.436;2023-02-19T10:36:25;11.00;99.90
582;DHT22;277;50.074;8.436;2023-02-19T10:38:58;11.00;99.90
582;DHT22;277;50.074;8.436;2023-02-19T10:41:27;11.00;99.90
582;DHT22;277;50.074;8.436;2023-02-19T10:44:05;11.00;99.90
582;DHT22;277;50.074;8.436;2023-02-19T10:46:39;10.90;99.90
582;DHT22;277;50.074;8.436;2023-02-19T10:49:19;10.90;99.90
582;DHT22;277;50.074;8.436;2023-02-19T10:51:51;11.00;99.90
582;DHT22;277;50.074;8.436;2023-02-19T10:54:25;11.00;99.90
582;DHT22;277;50.074;8.436;2023-02-19T10:56:54;11.10;99.90
582;DHT22;277;50.074;8.436;2023-02-19T10:59:48;11.20;99.90
582;DHT22;277;50.074;8.436;2023-02-19T11:02:17;11.30;99.90
582;DHT22;277;50.074;8.436;2023-02-19T11:05:03;11.50;99.90
582;DHT22;277;50.074;8.436;2023-02-19T11:07:32;11.60;99.90
582;DHT22;277;50.074;8.436;2023-02-19T11:10:02;11.60;99.90
582;DHT22;277;50.074;8.436;2023-02-19T11:12:32;11.70;99.90
582;DHT22;277;50.074;8.436;2023-02-19T11:15:17;11.80;99.90
582;DHT22;277;50.074;8.436;2023-02-19T11:17:53;11.90;99.90
582;DHT22;277;50.074;8.436;2023-02-19T11:20:22;12.00;99.90
582;DHT22;277;50.074;8.436;2023-02-19T11:22:57;12.10;99.90
582;DHT22;277;50.074;8.436;2023-02-19T11:25:27;12.20;99.90
582;DHT22;277;50.074;8.436;2023-02-19T11:27:57;12.10;99.90
582;DHT22;277;50.074;8.436;2023-02-19T11:30:35;12.20;99.90
582;DHT22;277;50.074;8.436;2023-02-19T11:33:34;12.20;99.90
582;DHT22;277;50.074;8.436;2023-02-19T11:36:28;12.20;99.90
582;DHT22;277;50.074;8.436;2023-02-19T11:39:17;12.20;99.90
582;DHT22;277;50.074;8.436;2023-02-19T11:42:04;12.30;99.90
582;DHT22;277;50.074;8.436;2023-02-19T11:44:49;12.30;99.90
582;DHT22;277;50.074;8.436;2023-02-19T11:47:35;12.30;99.90
582;DHT22;277;50.074;8.436;2023-02-19T11:50:14;12.20;99.90
582;DHT22;277;50.074;8.436;2023-02-19T11:52:51;12.00;99.90
582;DHT22;277;50.074;8.436;2023-02-19T11:55:33;11.80;99.90
582;DHT22;277;50.074;8.436;2023-02-19T11:58:20;11.60;99.90
582;DHT22;277;50.074;8.436;2023-02-19T12:00:56;11.50;99.90
582;DHT22;277;50.074;8.436;2023-02-19T12:03:48;11.50;99.90
582;DHT22;277;50.074;8.436;2023-02-19T12:06:27;11.50;99.90
582;DHT22;277;50.074;8.436;2023-02-19T12:09:14;11.60;99.90
582;DHT22;277;50.074;8.436;2023-02-19T12:12:08;11.70;99.90
582;DHT22;277;50.074;8.436;2023-02-19T12:15:01;11.80;99.90
582;DHT22;277;50.074;8.436;2023-02-19T12:17:46;11.90;99.90
582;DHT22;277;50.074;8.436;2023-02-19T12:20:22;12.00;99.90
582;DHT22;277;50.074;8.436;2023-02-19T12:23:17;12.10;99.90
582;DHT22;277;50.074;8.436;2023-02-19T12:25:56;12.20;99.90
582;DHT22;277;50.074;8.436;2023-02-19T12:28:46;12.30;99.90
582;DHT22;277;50.074;8.436;2023-02-19T12:31:43;12.10;99.90
582;DHT22;277;50.074;8.436;2023-02-19T12:34:28;12.00;99.90
582;DHT22;277;50.074;8.436;2023-02-19T12:37:09;11.90;99.90
582;DHT22;277;50.074;8.436;2023-02-19T12:39:46;12.00;99.90
582;DHT22;277;50.074;8.436;2023-02-19T12:42:28;12.10;99.90
582;DHT22;277;50.074;8.436;2023-02-19T12:45:05;12.30;99.90
582;DHT22;277;50.074;8.436;2023-02-19T12:47:37;12.30;99.90
582;DHT22;277;50.074;8.436;2023-02-19T12:50:14;12.30;99.90
582;DHT22;277;50.074;8.436;2023-02-19T12:52:47;12.20;99.90
582;DHT22;277;50.074;8.436;2023-02-19T12:55:21;12.20;99.90
582;DHT22;277;50.074;8.436;2023-02-19T12:57:52;12.00;99.90
582;DHT22;277;50.074;8.436;2023-02-19T13:00:30;12.00;99.90
582;DHT22;277;50.074;8.436;2023-02-19T13:03:02;12.00;99.90
582;DHT22;277;50.074;8.436;2023-02-19T13:05:39;12.00;99.90
582;DHT22;277;50.074;8.436;2023-02-19T13:08:13;12.00;99.90
582;DHT22;277;50.074;8.436;2023-02-19T13:10:47;11.90;99.90
582;DHT22;277;50.074;8.436;2023-02-19T13:13:20;11.80;99.90
582;DHT22;277;50.074;8.436;2023-02-19T13:15:56;11.80;99.90
582;DHT22;277;50.074;8.436;2023-02-19T13:18:29;11.70;99.90
582;DHT22;277;50.074;8.436;2023-02-19T13:20:59;11.70;99.90
582;DHT22;277;50.074;8.436;2023-02-19T13:23:29;11.60;99.90
582;DHT22;277;50.074;8.436;2023-02-19T13:26:28;11.60;99.90
582;DHT22;277;50.074;8.436;2023-02-19T13:29:12;11.50;99.90
582;DHT22;277;50.074;8.436;2023-02-19T13:32:05;11.40;99.90
582;DHT22;277;50.074;8.436;2023-02-19T13:34:51;11.40;99.90
582;DHT22;277;50.074;8.436;2023-02-19T13:37:23;11.30;99.90
582;DHT22;277;50.074;8.436;2023-02-19T13:39:53;11.40;99.90
582;DHT22;277;50.074;8.436;2023-02-19T13:42:26;11.40;99.90
582;DHT22;277;50.074;8.436;2023-02-19T13:44:55;11.50;99.90
582;DHT22;277;50.074;8.436;2023-02-19T13:47:48;11.40;99.90
582;DHT22;277;50.074;8.436;2023-02-19T13:50:19;11.30;99.90
582;DHT22;277;50.074;8.436;2023-02-19T13:52:47;11.30;99.90
582;DHT22;277;50.074;8.436;2023-02-19T14:04:24;11.00;99.90
582;DHT22;277;50.074;8.436;2023-02-19T14:07:18;11.10;99.90
582;DHT22;277;50.074;8.436;2023-02-19T14:09:49;10.90;99.90
582;DHT22;277;50.074;8.436;2023-02-19T14:12:19;10.80;99.90
582;DHT22;277;50.074;8.436;2023-02-19T14:14:48;10.70;99.90
582;DHT22;277;50.074;8.436;2023-02-19T14:17:25;10.60;99.90
582;DHT22;277;50.074;8.436;2023-02-19T14:20:04;10.50;99.90
582;DHT22;277;50.074;8.436;2023-02-19T14:23:14;10.50;99.90
582;DHT22;277;50.074;8.436;2023-02-19T14:25:46;10.60;99.90
582;DHT22;277;50.074;8.436;2023-02-19T14:28:27;10.70;99.90
582;DHT22;277;50.074;8.436;2023-02-19T14:31:01;10.70;99.90
582;DHT22;277;50.074;8.436;2023-02-19T14:33:32;10.80;99.90
582;DHT22;277;50.074;8.436;2023-02-19T14:36:05;10.80;99.90
582;DHT22;277;50.074;8.436;2023-02-19T14:38:36;10.80;99.90
582;DHT22;277;50.074;8.436;2023-02-19T14:41:05;10.80;99.90
582;DHT22;277;50.074;8.436;2023-02-19T14:43:37;10.80;99.90
582;DHT22;277;50.074;8.436;2023-02-19T14:46:12;11.00;99.90
582;DHT22;277;50.074;8.436;2023-02-19T14:48:43;11.10;99.90
582;DHT22;277;50.074;8.436;2023-02-19T14:51:19;11.00;99.90
582;DHT22;277;50.074;8.436;2023-02-19T14:53:49;10.90;99.90
582;DHT22;277;50.074;8.436;2023-02-19T14:56:20;10.80;99.90
582;DHT22;277;50.074;8.436;2023-02-19T14:59:04;10.80;99.90
582;DHT22;277;50.074;8.436;2023-02-19T15:01:32;10.70;99.90
582;DHT22;277;50.074;8.436;2023-02-19T15:04:00;10.70;99.90
582;DHT22;277;50.074;8.436;2023-02-19T15:06:30;10.80;99.90
582;DHT22;277;50.074;8.436;2023-02-19T15:09:01;10.90;99.90
582;DHT22;277;50.074;8.436;2023-02-19T15:11:30;10.90;99.90
582;DHT22;277;50.074;8.436;2023-02-19T15:14:00;11.00;99.90
582;DHT22;277;50.074;8.436;2023-02-19T15:16:31;11.10;99.90
582;DHT22;277;50.074;8.436;2023-02-19T15:18:59;11.10;99.90
582;DHT22;277;50.074;8.436;2023-02-19T15:21:28;11.10;99.90
582;DHT22;277;50.074;8.436;2023-02-19T15:24:01;11.10;99.90
582;DHT22;277;50.074;8.436;2023-02-19T15:26:33;11.20;99.90
582;DHT22;277;50.074;8.436;2023-02-19T15:29:07;11.30;99.90
582;DHT22;277;50.074;8.436;2023-02-19T15:31:36;11.30;99.90
582;DHT22;277;50.074;8.436;2023-02-19T15:34:15;11.20;99.90
582;DHT22;277;50.074;8.436;2023-02-19T15:36:43;11.20;99.90
582;DHT22;277;50.074;8.436;2023-02-19T15:39:18;11.20;99.90
582;DHT22;277;50.074;8.436;2023-02-19T15:41:56;11.20;99.90
582;DHT22;277;50.074;8.436;2023-02-19T15:44:34;11.20;99.90
582;DHT22;277;50.074;8.436;2023-02-19T15:47:07;11.20;99.90
582;DHT22;277;50.074;8.436;2023-02-19T15:49:43;11.10;99.90
582;DHT22;277;50.074;8.436;2023-02-19T15:52:20;11.10;99.90
582;DHT22;277;50.074;8.436;2023-02-19T15:54:54;11.00;99.90
582;DHT22;277;50.074;8.436;2023-02-19T15:57:28;10.90;99.90
582;DHT22;277;50.074;8.436;2023-02-19T16:00:02;10.90;99.90
582;DHT22;277;50.074;8.436;2023-02-19T16:02:31;10.90;99.90
582;DHT22;277;50.074;8.436;2023-02-19T16:04:59;10.90;99.90
582;DHT22;277;50.074;8.436;2023-02-19T16:07:29;10.80;99.90
582;DHT22;277;50.074;8.436;2023-02-19T16:10:18;10.70;99.90
582;DHT22;277;50.074;8.436;2023-02-19T16:12:55;10.60;99.90
582;DHT22;277;50.074;8.436;2023-02-19T16:15:22;10.60;99.90
582;DHT22;277;50.074;8.436;2023-02-19T16:17:51;10.50;99.90
582;DHT22;277;50.074;8.436;2023-02-19T16:20:21;10.40;99.90
582;DHT22;277;50.074;8.436;2023-02-19T16:22:51;10.40;99.90
582;DHT22;277;50.074;8.436;2023-02-19T16:25:27;10.40;99.90
582;DHT22;277;50.074;8.436;2023-02-19T16:27:56;10.30;99.90
582;DHT22;277;50.074;8.436;2023-02-19T16:30:30;10.20;99.90
582;DHT22;277;50.074;8.436;2023-02-19T16:36:34;10.10;99.90
582;DHT22;277;50.074;8.436;2023-02-19T16:39:19;10.00;99.90
582;DHT22;277;50.074;8.436;2023-02-19T16:42:10;10.00;99.90
582;DHT22;277;50.074;8.436;2023-02-19T16:44:40;10.10;99.90
582;DHT22;277;50.074;8.436;2023-02-19T16:47:23;10.00;99.90
582;DHT22;277;50.074;8.436;2023-02-19T16:49:51;10.00;99.90
582;DHT22;277;50.074;8.436;2023-02-19T16:52:19;10.00;99.90
582;DHT22;277;50.074;8.436;2023-02-19T16:54:48;10.00;99.90
582;DHT22;277;50.074;8.436;2023-02-19T16:57:17;9.90;99.90
582;DHT22;277;50.074;8.436;2023-02-19T16:59:46;9.90;99.90
582;DHT22;277;50.074;8.436;2023-02-19T17:02:17;9.90;99.90
582;DHT22;277;50.074;8.436;2023-02-19T17:04:46;9.90;99.90
582;DHT22;277;50.074;8.436;2023-02-19T17:07:16;9.90;99.90
582;DHT22;277;50.074;8.436;2023-02-19T17:09:44;9.90;99.90
582;DHT22;277;50.074;8.436;2023-02-19T17:12:14;9.80;99.90
582;DHT22;277;50.074;8.436;2023-02-19T17:14:44;9.70;99.90
582;DHT22;277;50.074;8.436;2023-02-19T17:17:12;9.70;99.90
582;DHT22;277;50.074;8.436;2023-02-19T17:19:40;9.80;99.90
582;DHT22;277;50.074;8.436;2023-02-19T17:22:08;9.70;99.90
582;DHT22;277;50.074;8.436;2023-02-19T17:24:39;9.70;99.90